Terminal Aerodrome Forecast
Issued by NWS Portland, OR

Home | Current Version | Previous Version | Text Only | Print | Product List | Glossary On
Versions: 1 2 3 4 5 6 7 8 9 10 11 12 13 14 15 16 17 18 19 20 21 22 23 24 25 26 27 28 29 30 31 32 33 34 35 36 37 38
000
FTUS46 KPQR 212320
TAFTTD
TAF
KTTD 212320Z 2200/2224 VRB03KT P6SM SCT200
     FM220600 26003KT P6SM SCT045 BKN100
     FM221400 VRB03KT P6SM BKN015
     FM221800 30006KT P6SM SCT050=

USA.gov is the U.S. government's official web portal to all federal, state and local government web resources and services.